• Join FlightAware (Why Join?)
  • Login
  • US Flag 
09:55PM EDT


 

Airport Tracker/Info


-or-


 

Live Flight TrackerFlight Track Log ✈ VOZ187 ✈ 11-Apr-2013 ✈ NZAA / AKL - YBBN / BNE

Flight Track Log - Related Links

Times and Time Zones

All times are in EDT time to prevent confusion due to time zone crossing. See the VOZ187 flight status page for this flight to view local times or setup timezone preferences in your user account.

Time Position Orientation Groundspeed Altitude Reporting Facility
EDT Latitude Longitude Course Direction KTS MPH feet Rate Location/Type
03:13PM -37.0480 174.6490 266° West 246 283 3,600  Level FlightAware
03:14PM -37.0340 174.6060 292° West 284 327 4,100 1,020 Climbing FlightAware
03:14PM -37.0260 174.5900 302° West 299 344 4,300 480 Climbing FlightAware
03:15PM -37.0030 174.5410 300° West 310 357 4,500 180 Climbing FlightAware
03:17PM -36.9093 174.3048 296° West  Level FlightAware Approximate
03:18PM -36.8571 174.1739 296° West  Level FlightAware Approximate
03:19PM -36.8047 174.0431 297° West  Level FlightAware Approximate
03:20PM -36.7522 173.9125 297° West  Level FlightAware Approximate
03:21PM -36.6995 173.7821 297° West  Level FlightAware Approximate
03:22PM -36.6467 173.6518 297° West  Level FlightAware Approximate
03:23PM -36.5938 173.5218 297° West  Level FlightAware Approximate
03:24PM -36.5407 173.3919 297° West  Level FlightAware Approximate
03:25PM -36.4874 173.2622 297° West  Level FlightAware Approximate
03:26PM -36.4341 173.1326 297° West  Level FlightAware Approximate
03:27PM -36.3806 173.0033 297° West  Level FlightAware Approximate
03:28PM -36.3269 172.8741 297° West  Level FlightAware Approximate
03:29PM -36.2731 172.7451 297° West  Level FlightAware Approximate
03:30PM -36.2192 172.6163 297° West  Level FlightAware Approximate
03:31PM -36.1651 172.4877 297° West  Level FlightAware Approximate
03:32PM -36.1109 172.3592 298° West  Level FlightAware Approximate
03:33PM -36.0566 172.2309 298° West  Level FlightAware Approximate
03:34PM -36.0021 172.1028 298° West  Level FlightAware Approximate
03:35PM -35.9475 171.9749 298° West  Level FlightAware Approximate
03:36PM -35.8928 171.8472 298° West  Level FlightAware Approximate
03:37PM -35.8379 171.7196 298° West  Level FlightAware Approximate
03:38PM -35.7829 171.5922 298° West  Level FlightAware Approximate
03:39PM -35.7277 171.4650 298° West  Level FlightAware Approximate
03:40PM -35.6724 171.3379 298° West  Level FlightAware Approximate
03:41PM -35.6170 171.2110 298° West  Level FlightAware Approximate
03:42PM -35.5620 171.0841 294° West  Level FlightAware Approximate
03:43PM -35.5137 170.9530 294° West  Level FlightAware Approximate
03:44PM -35.4654 170.8221 294° West  Level FlightAware Approximate
03:45PM -35.4168 170.6914 294° West  Level FlightAware Approximate
03:46PM -35.3682 170.5608 295° West  Level FlightAware Approximate
03:47PM -35.3194 170.4303 295° West  Level FlightAware Approximate
03:48PM -35.2704 170.3001 295° West  Level FlightAware Approximate
03:49PM -35.2214 170.1700 295° West  Level FlightAware Approximate
03:50PM -35.1721 170.0400 295° West  Level FlightAware Approximate
03:51PM -35.1228 169.9102 295° West  Level FlightAware Approximate
03:52PM -35.0733 169.7806 295° West  Level FlightAware Approximate
03:53PM -35.0236 169.6511 295° West  Level FlightAware Approximate
03:54PM -34.9739 169.5217 295° West  Level FlightAware Approximate
03:55PM -34.9240 169.3926 295° West  Level FlightAware Approximate
03:56PM -34.8739 169.2636 295° West  Level FlightAware Approximate
03:57PM -34.8237 169.1347 295° West  Level FlightAware Approximate
03:58PM -34.7734 169.0060 295° West  Level FlightAware Approximate
03:59PM -34.7230 168.8775 295° West  Level FlightAware Approximate
04:00PM -34.6724 168.7491 296° West  Level FlightAware Approximate
04:01PM -34.6217 168.6209 296° West  Level FlightAware Approximate
04:02PM -34.5708 168.4928 296° West  Level FlightAware Approximate
04:03PM -34.5198 168.3649 296° West  Level FlightAware Approximate
04:04PM -34.4687 168.2371 296° West  Level FlightAware Approximate
04:05PM -34.4174 168.1095 296° West  Level FlightAware Approximate
04:06PM -34.3660 167.9821 296° West  Level FlightAware Approximate
04:07PM -34.3145 167.8548 296° West  Level FlightAware Approximate
04:08PM -34.2629 167.7277 296° West  Level FlightAware Approximate
04:09PM -34.2111 167.6007 296° West  Level FlightAware Approximate
04:10PM -34.1592 167.4739 296° West  Level FlightAware Approximate
04:11PM -34.1071 167.3472 296° West  Level FlightAware Approximate
04:12PM -34.0549 167.2207 296° West  Level FlightAware Approximate
04:13PM -34.0026 167.0943 297° West  Level FlightAware Approximate
04:14PM -33.9502 166.9682 297° West  Level FlightAware Approximate
04:15PM -33.8977 166.8421 297° West  Level FlightAware Approximate
04:16PM -33.8450 166.7162 297° West  Level FlightAware Approximate
04:17PM -33.7921 166.5905 297° West  Level FlightAware Approximate
04:18PM -33.7392 166.4649 297° West  Level FlightAware Approximate
04:19PM -33.6861 166.3395 297° West  Level FlightAware Approximate
04:20PM -33.6329 166.2143 297° West  Level FlightAware Approximate
04:21PM -33.5796 166.0892 297° West  Level FlightAware Approximate
04:22PM -33.5261 165.9642 297° West  Level FlightAware Approximate
04:23PM -33.4726 165.8394 297° West  Level FlightAware Approximate
04:24PM -33.4189 165.7148 297° West  Level FlightAware Approximate
04:25PM -33.3650 165.5903 297° West  Level FlightAware Approximate
04:26PM -33.3111 165.4659 297° West  Level FlightAware Approximate
04:27PM -33.2570 165.3418 297° West  Level FlightAware Approximate
04:28PM -33.2028 165.2177 298° West  Level FlightAware Approximate
04:29PM -33.1485 165.0938 298° West  Level FlightAware Approximate
04:30PM -33.0941 164.9701 298° West  Level FlightAware Approximate
04:31PM -33.0395 164.8466 298° West  Level FlightAware Approximate
04:32PM -32.9848 164.7231 298° West  Level FlightAware Approximate
04:33PM -32.9300 164.5999 298° West  Level FlightAware Approximate
04:34PM -32.8751 164.4768 298° West  Level FlightAware Approximate
04:35PM -32.8200 164.3538 298° West  Level FlightAware Approximate
04:36PM -32.7648 164.2310 298° West  Level FlightAware Approximate
04:37PM -32.7095 164.1084 298° West  Level FlightAware Approximate
04:38PM -32.6541 163.9859 298° West  Level FlightAware Approximate
04:39PM -32.5986 163.8635 298° West  Level FlightAware Approximate
04:40PM -32.5430 163.7413 298° West  Level FlightAware Approximate
04:41PM -32.4872 163.6193 298° West  Level FlightAware Approximate
04:42PM -32.4314 163.4974 298° West  Level FlightAware Approximate
04:43PM -32.3754 163.3756 299° West  Level FlightAware Approximate
04:44PM -32.3192 163.2540 299° West  Level FlightAware Approximate
04:45PM -32.2630 163.1326 299° West  Level FlightAware Approximate
04:46PM -32.2067 163.0113 299° West  Level FlightAware Approximate
04:47PM -32.1502 162.8902 299° West  Level FlightAware Approximate
04:48PM -32.0936 162.7692 299° West  Level FlightAware Approximate
04:48PM -32.3898 163.4097 299° West 24,000  Level Aus ATC (Calculated)
04:49PM -32.2905 163.1947 299° West 24,000 180 Level Aus ATC (Calculated)
04:49PM -32.2905 163.1948 299° West 24,000 180 Level Aus ATC (Calculated)
04:50PM -32.2844 163.1813 299° West  Level FlightAware Approximate
04:51PM -32.2309 163.0664 299° West  Level FlightAware Approximate
04:52PM -32.1775 162.9516 299° West  Level FlightAware Approximate
04:52PM -32.1686 162.9325 299° West 24,000  Level Aus ATC (Calculated)
04:53PM -32.1240 162.8370 299° West  Level FlightAware Approximate
04:54PM -32.0685 162.7186 299° West  Level FlightAware Approximate
04:55PM -32.0148 162.6043 299° West  Level FlightAware Approximate
04:56PM -31.9609 162.4900 299° West  Level FlightAware Approximate
04:57PM -31.9070 162.3759 299° West  Level FlightAware Approximate
04:58PM -31.8529 162.2619 299° West  Level FlightAware Approximate
04:59PM -31.7987 162.1480 299° West  Level FlightAware Approximate
04:59PM -31.7904 162.1304 299° West 24,000  Level Aus ATC (Calculated)
05:01PM -31.7017 161.9448 299° West  Level FlightAware Approximate
05:02PM -31.6472 161.8313 299° West  Level FlightAware Approximate
05:03PM -31.5927 161.7179 299° West  Level FlightAware Approximate
05:03PM -31.5814 161.6945 299° West 24,000  Level Aus ATC (Calculated)
05:03PM -31.5814 161.6945 299° West 24,000 300 Level Aus ATC (Calculated)
05:05PM -31.5103 161.5473 300° West  Level FlightAware Approximate
05:06PM -31.4574 161.4383 300° West  Level FlightAware Approximate
05:07PM -31.4045 161.3295 300° West  Level FlightAware Approximate
05:08PM -31.3515 161.2208 300° West  Level FlightAware Approximate
05:08PM -31.3095 161.1348 300° West 24,000  Level Aus ATC (Calculated)
05:10PM -31.2217 160.9559 300° West  Level FlightAware Approximate
05:11PM -31.1684 160.8476 300° West  Level FlightAware Approximate
05:12PM -31.1150 160.7395 300° West  Level FlightAware Approximate
05:13PM -31.0615 160.6314 300° West  Level FlightAware Approximate
05:13PM -31.0303 160.5684 300° West 24,000  Level Aus ATC (Calculated)
05:15PM -30.9417 160.3905 300° West  Level FlightAware Approximate
05:16PM -30.8879 160.2829 300° West  Level FlightAware Approximate
05:17PM -30.8341 160.1754 300° West  Level FlightAware Approximate
05:18PM -30.7801 160.0680 300° West  Level FlightAware Approximate
05:18PM -30.7530 160.0141 300° West 24,000  Level Aus ATC (Calculated)
05:18PM -30.7530 160.0141 300° West 24,000 600 Level Aus ATC (Calculated)
05:20PM -30.6628 159.8354 300° West  Level FlightAware Approximate
05:21PM -30.6085 159.7284 300° West  Level FlightAware Approximate
05:22PM -30.5542 159.6216 300° West  Level FlightAware Approximate
05:23PM -30.4998 159.5148 301° West  Level FlightAware Approximate
05:23PM -30.4860 159.4877 301° West 24,000  Level Aus ATC (Calculated)
05:25PM -30.3951 159.3101 301° West  Level FlightAware Approximate
05:26PM -30.3404 159.2037 301° West  Level FlightAware Approximate
05:27PM -30.2857 159.0974 301° West  Level FlightAware Approximate
05:27PM -30.2591 159.0458 301° West 24,000  Level Aus ATC (Calculated)
05:28PM -30.2207 158.9714 301° West 24,000 1,320 Level Aus ATC (Calculated)
05:30PM -30.1286 158.7939 301° West  Level FlightAware Approximate
05:31PM -30.0738 158.6886 301° West  Level FlightAware Approximate
05:32PM -30.0189 158.5834 301° West  Level FlightAware Approximate
05:33PM -29.9639 158.4783 301° West  Level FlightAware Approximate
05:33PM -29.9213 158.3970 301° West 24,000  Level Aus ATC (Calculated)
05:34PM -29.8649 158.2897 301° West 24,000 5,340 Level Aus ATC (Calculated)
05:35PM -29.6703 157.9183 301° West 329 379 34,300 3,840 Climbing Aus ATC (RADAR)
05:36PM -29.5855 157.7611 302° West 334 384 34,300  Level Aus ATC (RADAR)
05:37PM -29.5734 157.7371 300° West 334 384 34,300 -120 Level Aus ATC (RADAR)
05:37PM -29.5435 157.6822 302° West 335 386 34,200  Descending Aus ATC (RADAR)
05:38PM -29.4929 157.5873 301° West 337 388 34,300 60 Climbing Aus ATC (RADAR)
05:39PM -29.4626 157.5321 302° West 338 389 34,300  Level Aus ATC (RADAR)
05:40PM -29.4116 157.4366 302° West 340 391 34,300  Level Aus ATC (RADAR)
05:40PM -29.3819 157.3814 302° West 339 390 34,300 -480 Level Aus ATC (RADAR)
05:40PM -29.3840 157.3860 302° West 348 400 34,000 -420 Descending FlightAware
05:41PM -29.3480 157.3190 302° West 349 402 34,000 240 Level FlightAware
05:41PM -29.3268 157.2779 302° West 341 392 34,300 480 Climbing Aus ATC (RADAR)
05:42PM -29.3133 157.2542 303° West 341 392 34,300 -480 Level Aus ATC (RADAR)
05:42PM -29.2950 157.2220 303° West 350 403 34,000 -360 Descending FlightAware
05:43PM -29.2690 157.1700 300° West 350 403 34,000  Level FlightAware
05:43PM -29.2317 157.1029 300° West 341 392 34,000  Level Aus ATC (RADAR)
05:43PM -29.2580 157.1510 300° West 354 407 34,000  Level FlightAware
05:44PM -29.2013 157.0475 300° West 342 394 34,000  Level Aus ATC (RADAR)
05:44PM -29.1980 157.0370 300° West 351 404 34,000  Level FlightAware
05:45PM -29.1700 156.9830 301° West 351 404 34,000  Level FlightAware
05:45PM -29.1196 156.8967 301° West 341 392 34,000  Level Aus ATC (RADAR)
05:46PM -29.1210 156.9000 301° West 349 402 34,000  Level FlightAware
05:46PM -29.0810 156.8270 302° West 348 400 34,000  Level FlightAware
05:47PM -29.0460 156.7630 302° West 346 398 34,000  Level FlightAware
05:47PM -29.0256 156.7231 302° West 338 389 34,000  Level Aus ATC (RADAR)
05:48PM -29.0130 156.7000 302° West 345 397 34,000  Level FlightAware
05:48PM -28.9860 156.6460 300° West 345 397 34,000  Level FlightAware
05:49PM -28.9436 156.5748 300° West 339 390 34,000  Level Aus ATC (RADAR)
05:49PM -28.9590 156.5930 300° West 345 397 34,000  Level FlightAware
05:49PM -28.9132 156.5208 300° West 338 389 34,000  Level Aus ATC (RADAR)
05:50PM -28.9020 156.5000 300° West 344 396 34,000  Level FlightAware
05:50PM -28.8710 156.4450 300° West 343 395 34,000 300 Level FlightAware
05:50PM -28.8627 156.4282 300° West 332 382 34,200 180 Climbing Aus ATC (RADAR)
05:51PM -28.8253 156.3598 300° West 295 339 34,200 -240 Level Aus ATC (RADAR)
05:51PM -28.8310 156.3710 300° West 310 357 34,000 -240 Descending FlightAware
05:52PM -28.7990 156.3120 302° West 310 357 34,000 120 Level FlightAware
05:53PM -28.7619 156.2465 302° West 292 336 34,200  Climbing Aus ATC (RADAR)
05:53PM -28.7640 156.2490 302° West 300 345 34,000 -240 Descending FlightAware
05:54PM -28.7260 156.1820 303° West 295 339 34,000  Level FlightAware
05:54PM -28.6980 156.1310 302° West 301 346 34,000  Level FlightAware
05:55PM -28.6650 156.0720 303° West 302 348 34,000  Level FlightAware
05:56PM -28.6240 155.9980 302° West 299 344 34,000  Level FlightAware
05:57PM -28.5960 155.9470 302° West 299 344 34,000 180 Level FlightAware
05:57PM -28.5777 155.9126 302° West 292 336 34,200 300 Climbing Aus ATC (RADAR)
05:57PM -28.5664 155.8929 303° West 290 334 34,200 -840 Level Aus ATC (RADAR)
05:57PM -28.5700 155.9010 303° West 299 344 34,000  Descending FlightAware
05:58PM -28.5366 155.8404 303° West 290 334 34,200  Climbing Aus ATC (RADAR)
05:58PM -28.5390 155.8450 303° West 299 344 34,000 -300 Descending FlightAware
05:59PM -28.5140 155.8000 302° West 299 344 34,000 180 Level FlightAware
05:59PM -28.4886 155.7546 302° West 290 334 34,200 180 Climbing Aus ATC (RADAR)
05:59PM -28.4626 155.7086 303° West 291 335 34,200 -300 Level Aus ATC (RADAR)
06:00PM -28.4630 155.7090 303° West 298 343 34,000 -240 Descending FlightAware
06:00PM -28.4290 155.6490 303° West 298 343 34,000  Level FlightAware
06:01PM -28.3940 155.5970 307° West 304 350 34,000  Level FlightAware
06:02PM -28.3250 155.5270 318° Northwest 306 352 34,000 120 Level FlightAware
06:02PM -28.3333 155.5347 318° Northwest 298 343 34,200  Climbing Aus ATC (RADAR)
06:03PM -28.2830 155.4820 318° Northwest 306 352 34,000  Descending FlightAware
06:03PM -28.2594 155.4590 318° Northwest 301 346 34,200 120 Climbing Aus ATC (RADAR)
06:03PM -28.2370 155.4350 318° Northwest 34,000  Descending FlightAware
06:04PM -28.1960 155.3932 318° Northwest 305 351 34,200  Climbing Aus ATC (RADAR)
06:04PM -28.1750 155.3700 318° Northwest 310 357 34,000  Descending FlightAware
06:05PM -28.1538 155.3489 318° Northwest 307 353 34,200  Climbing Aus ATC (RADAR)
06:05PM -28.1400 155.3320 318° Northwest 310 357 34,000  Descending FlightAware
06:06PM -28.0839 155.2766 318° Northwest 309 356 34,200  Climbing Aus ATC (RADAR)
06:06PM -28.1040 155.2950 318° Northwest 310 357 34,000 -240 Descending FlightAware
06:07PM -28.0590 155.2480 317° Northwest 310 357 34,000 60 Level FlightAware
06:07PM -27.9820 155.1700 318° Northwest 34,000 120 Level FlightAware
06:08PM -27.9213 155.1069 318° Northwest 313 360 34,200  Climbing Aus ATC (RADAR)
06:08PM -27.9130 155.0980 318° Northwest 316 364 34,000  Descending FlightAware
06:09PM -27.8665 155.0499 318° Northwest 315 362 34,200  Climbing Aus ATC (RADAR)
06:09PM -27.8650 155.0480 318° Northwest 316 364 34,000 -300 Descending FlightAware
06:10PM -27.8220 155.0020 317° Northwest 322 371 34,000 -120 Level FlightAware
06:10PM -27.7830 154.9610 317° Northwest 324 373 33,900 -1,560 Descending FlightAware
06:11PM -27.7740 154.9517 317° Northwest 324 373 33,000 -3,000 Descending Aus ATC (RADAR)
06:11PM -27.7270 154.9000 316° Northwest 317 365 31,400 -1,920 Descending FlightAware
06:12PM -27.6934 154.8644 316° Northwest 313 360 30,700 -1,680 Descending Aus ATC (RADAR)
06:12PM -27.6830 154.8530 316° Northwest 313 360 30,300 -1,920 Descending FlightAware
06:13PM -27.6500 154.8180 317° Northwest 311 358 29,200 -1,980 Descending FlightAware
06:13PM -27.6195 154.7861 317° Northwest 310 357 28,400 -2,220 Descending Aus ATC (RADAR)
06:13PM -27.6044 154.7690 315° West 310 357 27,800 -2,460 Descending Aus ATC (RADAR)
06:13PM -27.5970 154.7600 315° West 316 364 27,300 -2,280 Descending FlightAware
06:14PM -27.5677 154.7285 315° West 315 362 26,500 -1,980 Descending Aus ATC (RADAR)
06:14PM -27.5550 154.7150 315° West 311 358 26,000 -1,200 Descending FlightAware
06:15PM -27.5022 154.6628 315° West 311 358 25,300 -1,140 Descending Aus ATC (RADAR)
06:15PM -27.4960 154.6450 315° West 302 348 24,900 -1,080 Descending FlightAware
06:15PM -27.4885 154.6098 315° West 304 350 24,700 -1,020 Descending Aus ATC (RADAR)
06:16PM -27.4850 154.5950 315° West 307 353 24,400 -1,440 Descending FlightAware
06:16PM -27.4676 154.5171 315° West 302 348 23,300 -1,560 Descending Aus ATC (RADAR)
06:16PM -27.4680 154.5200 315° West 306 352 23,100 -1,800 Descending FlightAware
06:17PM -27.4510 154.4490 285° West 309 356 21,900 -1,560 Descending FlightAware
06:18PM -27.4360 154.3850 285° West 314 361 20,900 -1,440 Descending FlightAware
06:18PM -27.4220 154.3200 284° West 316 364 20,000 -1,440 Descending FlightAware
06:19PM -27.4070 154.2480 283° West 323 372 18,900 -1,260 Descending FlightAware
06:20PM -27.4083 154.1985 283° West 327 376 18,500 -1,080 Descending Aus ATC (RADAR)
06:20PM -27.4200 154.1820 283° West 332 382 18,200 -1,080 Descending FlightAware
06:21PM -27.4700 154.1330 221° Southwest 322 371 17,500 -1,080 Descending FlightAware
06:21PM -27.4979 154.1068 221° Southwest 321 369 17,000 -2,100 Descending Aus ATC (RADAR)
06:21PM -27.5160 154.0880 221° Southwest 329 379 16,100 -1,980 Descending FlightAware
06:22PM -27.5600 154.0420 223° Southwest 329 379 15,100 -1,080 Descending FlightAware
06:23PM -27.5970 153.9890 232° Southwest 317 365 14,700 -480 Descending FlightAware
06:23PM -27.5994 153.9590 232° Southwest 314 361 14,700 -600 Level Aus ATC (RADAR)
06:23PM -27.5870 153.9270 232° Southwest 312 359 14,300 -1,080 Descending FlightAware
06:24PM -27.5640 153.8650 293° West 312 359 13,600 -960 Descending FlightAware
06:24PM -27.5535 153.8388 293° West 306 352 13,400 -1,380 Descending Aus ATC (RADAR)
06:25PM -27.5390 153.8000 293° West 302 348 12,600 -1,500 Descending FlightAware
06:25PM -27.5240 153.7580 292° West 300 345 12,000 -1,200 Descending FlightAware
06:26PM -27.5045 153.7077 292° West 299 344 11,400 -1,500 Descending Aus ATC (RADAR)
06:26PM -27.5010 153.6980 292° West 308 354 11,000 -1,380 Descending FlightAware
06:26PM -27.4850 153.6565 292° West 303 349 10,600 -1,620 Descending Aus ATC (RADAR)
06:27PM -27.4760 153.6330 292° West 308 354 9,800 -1,980 Descending FlightAware
06:27PM -27.4620 153.5950 293° West 305 351 9,200 -1,440 Descending FlightAware
06:28PM -27.4450 153.5510 294° West 302 348 8,500 -1,500 Descending FlightAware
06:28PM -27.4370 153.5300 293° West 302 348 8,100 -1,140 Descending FlightAware
06:28PM -27.4203 153.4990 293° West 298 343 7,800 -1,200 Descending Aus ATC (RADAR)
06:28PM -27.4190 153.4970 293° West 300 345 7,600 -1,380 Descending FlightAware
06:28PM -27.4040 153.4820 318° Northwest 300 345 7,400 -780 Descending FlightAware
06:29PM -27.3845 153.4620 318° Northwest 296 341 7,200 -1,200 Descending Aus ATC (RADAR)
06:29PM -27.3730 153.4490 318° Northwest 291 335 6,800 -1,320 Descending FlightAware
06:29PM -27.3500 153.4250 317° Northwest 285 328 6,400 -780 Descending FlightAware
06:30PM -27.3264 153.4006 317° Northwest 282 325 6,200 -1,020 Descending Aus ATC (RADAR)
06:30PM -27.3200 153.3940 317° Northwest 282 325 5,900 -1,080 Descending FlightAware
06:30PM -27.2930 153.3663 317° Northwest 277 319 5,600 -1,020 Descending Aus ATC (RADAR)
06:30PM -27.2920 153.3650 317° Northwest 279 321 5,400 -1,260 Descending FlightAware
06:31PM -27.2670 153.3390 317° Northwest 273 314 5,000 -1,020 Descending FlightAware
06:31PM -27.2400 153.3170 324° Northwest 259 298 4,500 -900 Descending FlightAware
06:32PM -27.2160 153.2970 323° Northwest 244 281 4,200 -900 Descending FlightAware
06:32PM -27.2080 153.2790 297° West 236 272 3,900 -960 Descending FlightAware
06:32PM -27.2100 153.2440 266° West 208 239 3,500 -720 Descending FlightAware
06:33PM -27.2150 153.2270 266° West 196 226 3,300  Descending FlightAware
06:33PM -27.2169 153.2224 266° West 205 236 3,500 -600 Climbing Aus ATC (RADAR)
06:33PM -27.2329 153.2150 266° West 190 219 3,100 -1,440 Descending Aus ATC (RADAR)
06:33PM -27.2410 153.2110 266° West 181 208 2,700 -1,260 Descending FlightAware
06:34PM -27.2520 153.2050 206° Southwest 178 205 2,500 -900 Descending FlightAware
06:34PM -27.2840 153.1860 208° Southwest 173 199 1,800 -900 Descending FlightAware
06:35PM -27.2940 153.1800 208° Southwest 166 191 1,600 -660 Descending FlightAware
06:35PM -27.3174 153.1673 208° Southwest 157 181 1,300 -600 Descending Aus ATC (RADAR)
06:36PM -27.3350 153.1570 208° Southwest 147 169 1,000 -780 Descending FlightAware
06:36PM -27.3497 153.1489 208° Southwest 141 162 600 -1,200 Descending Aus ATC (RADAR)
06:36PM -27.3610 153.1420 208° Southwest 133 153 100 -660 Descending FlightAware
06:37PM -27.3740 153.1350 206° Southwest 135 155 100  Level FlightAware